createdAt,value
2023-05-08T00:03:45.970Z,58.46
2023-05-08T00:12:09.168Z,58.41
2023-05-08T00:20:34.487Z,58.24
2023-05-08T00:28:57.478Z,58.37
2023-05-08T00:37:21.213Z,58.39
2023-05-08T00:45:44.365Z,58.55
2023-05-08T00:54:07.533Z,58.38
2023-05-08T01:02:32.014Z,58.29
2023-05-08T01:11:09.192Z,58.52
2023-05-08T01:19:35.625Z,58.36
2023-05-08T01:28:30.123Z,58.29
2023-05-08T01:37:16.575Z,58.26
2023-05-08T01:45:45.071Z,58.46
2023-05-08T01:54:12.662Z,58.38
2023-05-08T02:02:36.473Z,58.33
2023-05-08T02:11:02.192Z,58.41
2023-05-08T02:19:28.708Z,58.47
2023-05-08T02:27:54.710Z,58.44
2023-05-08T02:36:19.516Z,58.53
2023-05-08T02:44:42.986Z,58.64
2023-05-08T02:53:12.617Z,58.51
2023-05-08T03:01:46.229Z,58.63
2023-05-08T03:10:17.002Z,58.50
2023-05-08T03:18:47.104Z,58.53
2023-05-08T03:27:11.288Z,58.76
2023-05-08T03:35:39.269Z,58.73
2023-05-08T03:44:05.728Z,58.78
2023-05-08T03:52:30.393Z,59.39
2023-05-08T04:01:12.146Z,59.77
2023-05-08T04:09:55.294Z,60.14
2023-05-08T04:18:25.645Z,60.38
2023-05-08T04:26:49.724Z,60.60
2023-05-08T04:35:14.069Z,60.57
2023-05-08T04:43:38.586Z,60.73
2023-05-08T04:52:02.578Z,60.85
2023-05-08T05:00:25.637Z,60.91
2023-05-08T05:08:48.886Z,61.03
2023-05-08T05:17:12.251Z,60.90
2023-05-08T05:25:35.975Z,61.14
2023-05-08T05:33:59.629Z,61.27
2023-05-08T05:42:23.361Z,61.21
2023-05-08T05:50:46.634Z,61.29
2023-05-08T05:59:10.307Z,61.44
2023-05-08T06:07:50.627Z,61.48
2023-05-08T06:16:16.178Z,61.74
2023-05-08T06:24:53.691Z,61.81
2023-05-08T06:33:16.781Z,62.06
2023-05-08T06:41:40.906Z,62.02
2023-05-08T06:50:04.627Z,62.07
2023-05-08T06:58:27.678Z,61.96
2023-05-08T07:06:50.601Z,62.15
2023-05-08T07:15:25.660Z,62.23
2023-05-08T07:24:01.549Z,62.22
2023-05-08T07:32:25.190Z,62.46
2023-05-08T07:40:49.105Z,62.47
2023-05-08T07:49:13.151Z,62.35
2023-05-08T07:57:42.641Z,62.62
2023-05-08T08:06:08.920Z,62.55
2023-05-08T08:14:32.211Z,62.56
2023-05-08T08:22:55.227Z,62.57
2023-05-08T08:31:20.049Z,62.46
2023-05-08T08:39:43.580Z,62.44
2023-05-08T08:48:11.651Z,62.42
2023-05-08T08:56:38.188Z,62.46
2023-05-08T09:05:03.249Z,62.68
2023-05-08T09:13:26.425Z,62.47
2023-05-08T09:21:49.623Z,62.58
2023-05-08T09:30:14.739Z,62.80
2023-05-08T09:38:40.340Z,62.66
2023-05-08T09:47:13.877Z,62.59
2023-05-08T09:55:48.914Z,62.68
2023-05-08T10:04:11.789Z,62.75
2023-05-08T10:12:35.033Z,62.58
2023-05-08T10:21:01.190Z,62.57
2023-05-08T10:29:33.540Z,62.62
2023-05-08T10:37:57.350Z,62.63
2023-05-08T10:46:38.682Z,62.59
2023-05-08T10:55:33.498Z,62.38
2023-05-08T11:03:56.901Z,62.54
2023-05-08T11:12:28.184Z,62.43
2023-05-08T11:21:00.287Z,62.31
2023-05-08T11:29:23.693Z,62.29
2023-05-08T11:38:19.817Z,62.29
2023-05-08T11:46:44.070Z,62.24
2023-05-08T11:55:08.795Z,62.38
2023-05-08T12:03:32.497Z,62.28
2023-05-08T12:11:59.381Z,62.13
2023-05-08T12:20:22.354Z,62.03
2023-05-08T12:28:46.858Z,62.10
2023-05-08T12:37:09.958Z,62.11
2023-05-08T12:45:35.901Z,61.91
2023-05-08T12:53:58.806Z,61.92
2023-05-08T13:02:24.240Z,61.59
2023-05-08T13:10:51.400Z,61.91
2023-05-08T13:19:16.143Z,61.93
2023-05-08T13:27:39.022Z,61.72
2023-05-08T13:36:04.518Z,61.66
2023-05-08T13:44:32.559Z,61.64
2023-05-08T13:52:56.373Z,61.46
2023-05-08T14:01:26.527Z,61.44
2023-05-08T14:09:50.124Z,61.52
2023-05-08T14:18:13.746Z,61.41
2023-05-08T14:26:37.009Z,61.28
2023-05-08T14:35:00.222Z,61.46
2023-05-08T14:43:24.144Z,61.19
2023-05-08T14:51:47.106Z,61.19
2023-05-08T15:00:11.278Z,61.13
2023-05-08T15:08:34.170Z,60.94
2023-05-08T15:16:57.076Z,60.88
2023-05-08T15:25:20.251Z,60.79
2023-05-08T15:33:45.355Z,60.75
2023-05-08T15:42:08.491Z,60.79
2023-05-08T15:50:31.466Z,60.57
2023-05-08T15:58:54.462Z,60.50
2023-05-08T16:07:17.918Z,60.58
2023-05-08T16:15:41.157Z,60.38
2023-05-08T16:24:04.757Z,60.35
2023-05-08T16:32:27.811Z,60.41
2023-05-08T16:40:50.752Z,60.25
2023-05-08T16:49:14.096Z,60.11
2023-05-08T16:57:36.936Z,59.85
2023-05-08T17:06:00.026Z,59.95
2023-05-08T17:14:22.875Z,59.75
2023-05-08T17:22:45.825Z,59.84
2023-05-08T17:31:09.669Z,59.64
2023-05-08T17:39:33.080Z,59.50
2023-05-08T17:47:55.990Z,59.31
2023-05-08T17:56:20.713Z,59.33
2023-05-08T18:04:43.654Z,59.09
2023-05-08T18:13:07.227Z,58.94
2023-05-08T18:21:31.614Z,59.06
2023-05-08T18:29:54.803Z,58.87
2023-05-08T18:38:17.752Z,58.63
2023-05-08T18:46:41.136Z,58.63
2023-05-08T18:55:04.321Z,58.41
2023-05-08T19:03:27.691Z,58.34
2023-05-08T19:11:50.826Z,58.16
2023-05-08T19:20:15.800Z,58.11
2023-05-08T19:28:38.933Z,57.93
2023-05-08T19:37:01.799Z,57.79
2023-05-08T19:45:24.655Z,57.76
2023-05-08T19:53:47.554Z,57.71
2023-05-08T20:02:10.444Z,57.48
2023-05-08T20:10:33.443Z,57.30
2023-05-08T20:18:56.539Z,57.43
2023-05-08T20:27:19.486Z,57.19
2023-05-08T20:35:42.412Z,57.24
2023-05-08T20:44:05.625Z,57.15
2023-05-08T20:52:28.470Z,56.94
2023-05-08T21:00:51.332Z,56.98
2023-05-08T21:09:14.191Z,56.91
2023-05-08T21:17:37.138Z,57.03
2023-05-08T21:26:00.193Z,56.95
2023-05-08T21:34:23.112Z,56.83
2023-05-08T21:42:46.090Z,56.73
2023-05-08T21:51:08.926Z,56.79
2023-05-08T21:59:31.876Z,56.71
2023-05-08T22:07:54.869Z,56.77
2023-05-08T22:16:18.257Z,56.69
2023-05-08T22:24:41.251Z,56.68
2023-05-08T22:33:04.287Z,56.53
2023-05-08T22:41:29.893Z,56.62
2023-05-08T22:49:52.923Z,56.45
2023-05-08T22:58:16.165Z,56.60
2023-05-08T23:06:39.033Z,56.62
2023-05-08T23:15:02.043Z,56.48
2023-05-08T23:23:24.856Z,56.36
2023-05-08T23:31:47.690Z,56.35
2023-05-08T23:40:10.974Z,56.27
2023-05-08T23:48:33.909Z,56.20
2023-05-08T23:56:56.868Z,56.46
